Prairieville, LA (70769)

5:17 AM CDT on September 22, 2014 (GMT -0500)
Abby James Rd | Change Station
CLOSE
Current Station
Personal Weather Station
Location: Prairieville, LA
Elevation: 39 ft
Nearby Weather Stations

Elev 39 ft 30.31 °N, 90.93 °W | Updated 2 minutes ago

Clear
Clear
68.5 °F
Feels Like 68.5 °F
N
0.0
Wind Variable Wind from ENE
Gusts 0.0 mph

Today
High -- | Low -- °F
--% Chance of Precip.
Yesterday
High -- | Low -- °F
Precip. -- in
6:52 AM 7:00 PM
Waning Crescent, 3% visible
Pressure 30.01 in
Visibility 10.0 miles
Clouds Clear
Dew Point 64 °F
Humidity 86%
Rainfall 0.00 in
Snow Depth Not available.
UV 0 out of 12
Pollen 10.50 out of 12
Air Quality Not available.
Flu Activity Not available.
METAR KL38 220955Z AUTO 00000KT 10SM CLR 20/20 A3001 RMK AO2 T02010201

More Conditions Fewer Conditions

Pressure 30.01 in
Visibility 10.0 miles
Clouds Clear
Dew Point 64 °F
Humidity 86%
Rainfall 0.00 in
Snow Depth Not available.
UV 0 out of 12
Pollen 10.50 out of 12
Air Quality Not available.
Flu Activity Not available.
METAR KL38 220955Z AUTO 00000KT 10SM CLR 20/20 A3001 RMK AO2 T02010201

More Conditions Fewer Conditions

10-Day Weather Forecast

Almanac

Astronomy

Sep. 22, 2014 Rise Set
Actual Time 6:52 AM CDT 7:00 PM CDT
Civil Twilight 6:28 AM CDT 7:24 PM CDT
Nautical Twilight 6:00 AM CDT 7:52 PM CDT
Astronomical Twilight 5:31 AM CDT 8:20 PM CDT
Moon 5:25 AM CDT 6:05 PM CDT
Length of Visible Light 12h 56m
Length of Day
12h 08m
Tomorrow will be 1m 48s shorter.
Waning Crescent, 3% of the Moon is Illuminated
Today
Waning Crescent
Sep 24
New
Oct 1
First Quarter
Oct 8
Full
Oct 15
Last Quarter

Today's Extremes

State Highs State Lows

Community

WunderPhotos

Upload Photos

1,755,404 photos uploaded!

Nearby

Snow Depth

Station Depth Elevation
No new snow has been reported.

Earthquake Activity

City Distance Mag. Time & Date
No recent earthquake activity has been reported nearby.
Minimum magnitude displayed is 2.5.

Coastal Water Temperatures

Place Temperature
New Canal, LA 81.0 °F
Shell Beach, LA 78.1 °F
Bayou Gauche, LA 82.9 °F

Nearby Weather Stations